sensor_id;sensor_type;location;lat;lon;timestamp;P1;durP1;ratioP1;P2;durP2;ratioP2
55720;SDS011;41626;53.098;6.168;2023-03-19T00:01:54;11.85;;;10.35;;
55720;SDS011;41626;53.098;6.168;2023-03-19T00:04:20;11.75;;;10.55;;
55720;SDS011;41626;53.098;6.168;2023-03-19T00:06:48;11.27;;;10.07;;
55720;SDS011;41626;53.098;6.168;2023-03-19T00:09:14;11.73;;;10.05;;
55720;SDS011;41626;53.098;6.168;2023-03-19T00:11:40;11.15;;;9.90;;
55720;SDS011;41626;53.098;6.168;2023-03-19T00:14:07;14.02;;;10.38;;
55720;SDS011;41626;53.098;6.168;2023-03-19T00:16:32;13.27;;;10.17;;
55720;SDS011;41626;53.098;6.168;2023-03-19T00:18:58;12.23;;;11.03;;
55720;SDS011;41626;53.098;6.168;2023-03-19T00:21:25;12.32;;;10.98;;
55720;SDS011;41626;53.098;6.168;2023-03-19T00:23:51;11.88;;;10.35;;
55720;SDS011;41626;53.098;6.168;2023-03-19T00:26:17;11.02;;;9.30;;
55720;SDS011;41626;53.098;6.168;2023-03-19T00:28:43;9.40;;;8.35;;
55720;SDS011;41626;53.098;6.168;2023-03-19T00:31:14;10.73;;;7.88;;
55720;SDS011;41626;53.098;6.168;2023-03-19T00:33:40;8.13;;;7.07;;
55720;SDS011;41626;53.098;6.168;2023-03-19T00:36:07;8.63;;;7.07;;
55720;SDS011;41626;53.098;6.168;2023-03-19T00:38:33;7.30;;;6.60;;
55720;SDS011;41626;53.098;6.168;2023-03-19T00:41:00;7.90;;;6.00;;
55720;SDS011;41626;53.098;6.168;2023-03-19T00:43:26;7.82;;;6.10;;
55720;SDS011;41626;53.098;6.168;2023-03-19T00:45:52;5.47;;;4.97;;
55720;SDS011;41626;53.098;6.168;2023-03-19T00:48:18;6.55;;;4.47;;
55720;SDS011;41626;53.098;6.168;2023-03-19T00:50:45;5.75;;;5.15;;
55720;SDS011;41626;53.098;6.168;2023-03-19T00:53:14;5.30;;;4.80;;
55720;SDS011;41626;53.098;6.168;2023-03-19T00:55:40;6.90;;;4.88;;
55720;SDS011;41626;53.098;6.168;2023-03-19T00:58:06;4.97;;;4.47;;
55720;SDS011;41626;53.098;6.168;2023-03-19T01:00:32;5.72;;;4.95;;
55720;SDS011;41626;53.098;6.168;2023-03-19T01:03:00;6.35;;;4.55;;
55720;SDS011;41626;53.098;6.168;2023-03-19T01:05:26;6.68;;;5.10;;
55720;SDS011;41626;53.098;6.168;2023-03-19T01:07:52;5.80;;;4.90;;
55720;SDS011;41626;53.098;6.168;2023-03-19T01:10:18;7.10;;;5.07;;
55720;SDS011;41626;53.098;6.168;2023-03-19T01:12:46;5.67;;;4.77;;
55720;SDS011;41626;53.098;6.168;2023-03-19T01:15:12;5.45;;;4.20;;
55720;SDS011;41626;53.098;6.168;2023-03-19T01:17:38;5.57;;;4.47;;
55720;SDS011;41626;53.098;6.168;2023-03-19T01:20:04;5.53;;;4.03;;
55720;SDS011;41626;53.098;6.168;2023-03-19T01:22:40;4.97;;;3.78;;
55720;SDS011;41626;53.098;6.168;2023-03-19T01:25:07;5.45;;;3.88;;
55720;SDS011;41626;53.098;6.168;2023-03-19T01:27:33;3.97;;;3.13;;
55720;SDS011;41626;53.098;6.168;2023-03-19T01:29:59;3.60;;;3.30;;
55720;SDS011;41626;53.098;6.168;2023-03-19T01:32:25;3.67;;;3.25;;
55720;SDS011;41626;53.098;6.168;2023-03-19T01:34:51;5.97;;;3.70;;
55720;SDS011;41626;53.098;6.168;2023-03-19T01:37:18;4.43;;;3.50;;
55720;SDS011;41626;53.098;6.168;2023-03-19T01:39:44;3.85;;;3.35;;
55720;SDS011;41626;53.098;6.168;2023-03-19T01:42:10;5.03;;;3.20;;
55720;SDS011;41626;53.098;6.168;2023-03-19T01:44:37;4.77;;;2.80;;
55720;SDS011;41626;53.098;6.168;2023-03-19T01:47:10;4.65;;;3.33;;
55720;SDS011;41626;53.098;6.168;2023-03-19T01:49:45;5.60;;;2.72;;
55720;SDS011;41626;53.098;6.168;2023-03-19T01:52:16;4.03;;;2.80;;
55720;SDS011;41626;53.098;6.168;2023-03-19T01:54:42;4.07;;;2.93;;
55720;SDS011;41626;53.098;6.168;2023-03-19T01:57:10;5.28;;;3.00;;
55720;SDS011;41626;53.098;6.168;2023-03-19T01:59:39;3.92;;;3.03;;
55720;SDS011;41626;53.098;6.168;2023-03-19T02:05:15;4.25;;;3.10;;
55720;SDS011;41626;53.098;6.168;2023-03-19T02:07:49;2.78;;;2.45;;
55720;SDS011;41626;53.098;6.168;2023-03-19T02:10:16;4.90;;;2.80;;
55720;SDS011;41626;53.098;6.168;2023-03-19T02:12:43;4.38;;;3.03;;
55720;SDS011;41626;53.098;6.168;2023-03-19T02:15:09;3.93;;;2.93;;
55720;SDS011;41626;53.098;6.168;2023-03-19T02:17:34;4.13;;;2.65;;
55720;SDS011;41626;53.098;6.168;2023-03-19T02:20:07;5.03;;;3.55;;
55720;SDS011;41626;53.098;6.168;2023-03-19T02:22:57;3.92;;;2.90;;
55720;SDS011;41626;53.098;6.168;2023-03-19T02:28:04;6.03;;;3.33;;
55720;SDS011;41626;53.098;6.168;2023-03-19T02:30:31;3.87;;;2.77;;
55720;SDS011;41626;53.098;6.168;2023-03-19T02:32:58;4.68;;;3.10;;
55720;SDS011;41626;53.098;6.168;2023-03-19T02:35:24;3.33;;;2.92;;
55720;SDS011;41626;53.098;6.168;2023-03-19T02:37:54;3.42;;;2.60;;
55720;SDS011;41626;53.098;6.168;2023-03-19T02:40:21;3.03;;;2.28;;
55720;SDS011;41626;53.098;6.168;2023-03-19T02:42:50;3.17;;;2.35;;
55720;SDS011;41626;53.098;6.168;2023-03-19T02:45:15;4.07;;;3.00;;
55720;SDS011;41626;53.098;6.168;2023-03-19T02:47:42;3.20;;;2.80;;
55720;SDS011;41626;53.098;6.168;2023-03-19T02:50:07;6.95;;;2.83;;
55720;SDS011;41626;53.098;6.168;2023-03-19T02:52:34;2.85;;;2.17;;
55720;SDS011;41626;53.098;6.168;2023-03-19T02:55:00;3.90;;;3.50;;
55720;SDS011;41626;53.098;6.168;2023-03-19T02:57:26;4.70;;;3.10;;
55720;SDS011;41626;53.098;6.168;2023-03-19T02:59:52;4.03;;;3.20;;
55720;SDS011;41626;53.098;6.168;2023-03-19T03:02:17;4.60;;;2.90;;
55720;SDS011;41626;53.098;6.168;2023-03-19T03:04:43;4.03;;;3.20;;
55720;SDS011;41626;53.098;6.168;2023-03-19T03:07:09;4.77;;;2.80;;
55720;SDS011;41626;53.098;6.168;2023-03-19T03:09:35;4.72;;;2.72;;
55720;SDS011;41626;53.098;6.168;2023-03-19T03:12:01;6.27;;;3.27;;
55720;SDS011;41626;53.098;6.168;2023-03-19T03:14:27;3.00;;;2.70;;
55720;SDS011;41626;53.098;6.168;2023-03-19T03:16:53;5.00;;;3.22;;
55720;SDS011;41626;53.098;6.168;2023-03-19T03:19:19;3.80;;;2.90;;
55720;SDS011;41626;53.098;6.168;2023-03-19T03:21:45;3.58;;;2.72;;
55720;SDS011;41626;53.098;6.168;2023-03-19T03:24:11;2.92;;;2.38;;
55720;SDS011;41626;53.098;6.168;2023-03-19T03:26:37;4.28;;;2.72;;
55720;SDS011;41626;53.098;6.168;2023-03-19T03:29:04;4.47;;;2.78;;
55720;SDS011;41626;53.098;6.168;2023-03-19T03:31:30;4.15;;;2.70;;
55720;SDS011;41626;53.098;6.168;2023-03-19T03:33:56;3.40;;;2.75;;
55720;SDS011;41626;53.098;6.168;2023-03-19T03:36:22;4.15;;;2.97;;
55720;SDS011;41626;53.098;6.168;2023-03-19T03:38:47;3.42;;;2.80;;
55720;SDS011;41626;53.098;6.168;2023-03-19T03:41:13;4.97;;;3.67;;
55720;SDS011;41626;53.098;6.168;2023-03-19T03:43:39;3.30;;;3.00;;
55720;SDS011;41626;53.098;6.168;2023-03-19T03:46:05;3.30;;;3.00;;
55720;SDS011;41626;53.098;6.168;2023-03-19T03:48:32;4.50;;;3.40;;
55720;SDS011;41626;53.098;6.168;2023-03-19T03:50:59;4.85;;;2.88;;
55720;SDS011;41626;53.098;6.168;2023-03-19T03:53:25;4.83;;;2.90;;
55720;SDS011;41626;53.098;6.168;2023-03-19T03:55:51;6.05;;;3.85;;
55720;SDS011;41626;53.098;6.168;2023-03-19T03:58:16;3.95;;;3.55;;
55720;SDS011;41626;53.098;6.168;2023-03-19T04:00:43;6.15;;;3.97;;
55720;SDS011;41626;53.098;6.168;2023-03-19T04:03:08;4.60;;;4.10;;
55720;SDS011;41626;53.098;6.168;2023-03-19T04:05:34;5.77;;;5.00;;
55720;SDS011;41626;53.098;6.168;2023-03-19T04:08:01;5.80;;;4.13;;
55720;SDS011;41626;53.098;6.168;2023-03-19T04:10:27;5.25;;;4.75;;
55720;SDS011;41626;53.098;6.168;2023-03-19T04:12:53;4.90;;;4.30;;
55720;SDS011;41626;53.098;6.168;2023-03-19T04:15:19;5.68;;;4.68;;
55720;SDS011;41626;53.098;6.168;2023-03-19T04:17:45;4.95;;;4.55;;
55720;SDS011;41626;53.098;6.168;2023-03-19T04:20:11;7.57;;;5.47;;
55720;SDS011;41626;53.098;6.168;2023-03-19T04:22:38;6.80;;;5.47;;
55720;SDS011;41626;53.098;6.168;2023-03-19T04:25:04;7.33;;;5.53;;
55720;SDS011;41626;53.098;6.168;2023-03-19T04:27:32;6.97;;;4.88;;
55720;SDS011;41626;53.098;6.168;2023-03-19T04:29:58;6.40;;;5.32;;
55720;SDS011;41626;53.098;6.168;2023-03-19T04:32:24;6.90;;;6.20;;
55720;SDS011;41626;53.098;6.168;2023-03-19T04:34:49;6.60;;;5.95;;
55720;SDS011;41626;53.098;6.168;2023-03-19T04:37:15;6.70;;;6.07;;
55720;SDS011;41626;53.098;6.168;2023-03-19T04:39:41;8.63;;;6.70;;
55720;SDS011;41626;53.098;6.168;2023-03-19T04:42:08;7.43;;;6.60;;
55720;SDS011;41626;53.098;6.168;2023-03-19T04:44:35;8.20;;;6.78;;
55720;SDS011;41626;53.098;6.168;2023-03-19T04:47:01;8.85;;;7.32;;
55720;SDS011;41626;53.098;6.168;2023-03-19T04:49:28;9.43;;;8.07;;
55720;SDS011;41626;53.098;6.168;2023-03-19T04:51:55;8.68;;;7.80;;
55720;SDS011;41626;53.098;6.168;2023-03-19T04:54:22;9.43;;;8.35;;
55720;SDS011;41626;53.098;6.168;2023-03-19T04:56:48;10.48;;;9.45;;
55720;SDS011;41626;53.098;6.168;2023-03-19T04:59:14;9.33;;;8.43;;
55720;SDS011;41626;53.098;6.168;2023-03-19T05:01:40;9.80;;;8.80;;
55720;SDS011;41626;53.098;6.168;2023-03-19T05:04:06;10.37;;;9.40;;
55720;SDS011;41626;53.098;6.168;2023-03-19T05:06:32;10.98;;;9.88;;
55720;SDS011;41626;53.098;6.168;2023-03-19T05:08:58;12.38;;;10.95;;
55720;SDS011;41626;53.098;6.168;2023-03-19T05:11:24;12.23;;;11.02;;
55720;SDS011;41626;53.098;6.168;2023-03-19T05:13:51;12.50;;;11.23;;
55720;SDS011;41626;53.098;6.168;2023-03-19T05:16:16;13.82;;;12.48;;
55720;SDS011;41626;53.098;6.168;2023-03-19T05:18:42;15.27;;;13.68;;
55720;SDS011;41626;53.098;6.168;2023-03-19T05:21:12;15.53;;;13.93;;
55720;SDS011;41626;53.098;6.168;2023-03-19T05:23:38;16.55;;;14.85;;
55720;SDS011;41626;53.098;6.168;2023-03-19T05:26:04;16.80;;;15.17;;
55720;SDS011;41626;53.098;6.168;2023-03-19T05:28:30;17.48;;;15.70;;
55720;SDS011;41626;53.098;6.168;2023-03-19T05:30:56;18.47;;;16.60;;
55720;SDS011;41626;53.098;6.168;2023-03-19T05:33:22;17.57;;;15.77;;
55720;SDS011;41626;53.098;6.168;2023-03-19T05:35:48;16.85;;;15.23;;
55720;SDS011;41626;53.098;6.168;2023-03-19T05:38:15;17.90;;;16.10;;
55720;SDS011;41626;53.098;6.168;2023-03-19T05:40:41;17.98;;;16.17;;
55720;SDS011;41626;53.098;6.168;2023-03-19T05:43:08;16.63;;;14.60;;
55720;SDS011;41626;53.098;6.168;2023-03-19T05:45:34;16.67;;;14.98;;
55720;SDS011;41626;53.098;6.168;2023-03-19T05:48:00;15.77;;;14.27;;
55720;SDS011;41626;53.098;6.168;2023-03-19T05:50:27;16.37;;;14.67;;
55720;SDS011;41626;53.098;6.168;2023-03-19T05:52:53;16.93;;;15.13;;
55720;SDS011;41626;53.098;6.168;2023-03-19T05:55:18;21.10;;;17.67;;
55720;SDS011;41626;53.098;6.168;2023-03-19T05:57:44;28.00;;;22.92;;
55720;SDS011;41626;53.098;6.168;2023-03-19T06:00:10;34.37;;;27.50;;
55720;SDS011;41626;53.098;6.168;2023-03-19T06:02:37;35.17;;;29.23;;
55720;SDS011;41626;53.098;6.168;2023-03-19T06:05:03;32.55;;;29.05;;
55720;SDS011;41626;53.098;6.168;2023-03-19T06:07:30;24.77;;;21.17;;
55720;SDS011;41626;53.098;6.168;2023-03-19T06:09:56;17.15;;;15.50;;
55720;SDS011;41626;53.098;6.168;2023-03-19T06:12:22;18.30;;;16.45;;
55720;SDS011;41626;53.098;6.168;2023-03-19T06:14:48;19.17;;;17.10;;
55720;SDS011;41626;53.098;6.168;2023-03-19T06:17:14;17.90;;;16.20;;
55720;SDS011;41626;53.098;6.168;2023-03-19T06:19:40;19.13;;;16.92;;
55720;SDS011;41626;53.098;6.168;2023-03-19T06:22:05;17.63;;;15.82;;
55720;SDS011;41626;53.098;6.168;2023-03-19T06:24:31;15.73;;;14.15;;
55720;SDS011;41626;53.098;6.168;2023-03-19T06:26:57;14.38;;;12.80;;
55720;SDS011;41626;53.098;6.168;2023-03-19T06:29:23;15.23;;;13.25;;
55720;SDS011;41626;53.098;6.168;2023-03-19T06:31:49;14.68;;;13.18;;
55720;SDS011;41626;53.098;6.168;2023-03-19T06:34:16;13.48;;;11.55;;
55720;SDS011;41626;53.098;6.168;2023-03-19T06:36:42;13.00;;;11.70;;
55720;SDS011;41626;53.098;6.168;2023-03-19T06:39:08;13.30;;;12.00;;
55720;SDS011;41626;53.098;6.168;2023-03-19T06:41:34;13.40;;;12.05;;
55720;SDS011;41626;53.098;6.168;2023-03-19T06:44:01;13.90;;;12.20;;
55720;SDS011;41626;53.098;6.168;2023-03-19T06:46:27;14.38;;;11.80;;
55720;SDS011;41626;53.098;6.168;2023-03-19T06:48:53;12.47;;;11.27;;
55720;SDS011;41626;53.098;6.168;2023-03-19T06:51:19;13.37;;;10.83;;
55720;SDS011;41626;53.098;6.168;2023-03-19T06:53:45;12.45;;;11.20;;
55720;SDS011;41626;53.098;6.168;2023-03-19T06:56:11;11.77;;;10.32;;
55720;SDS011;41626;53.098;6.168;2023-03-19T06:58:36;14.20;;;12.23;;
55720;SDS011;41626;53.098;6.168;2023-03-19T07:01:02;13.15;;;11.55;;
55720;SDS011;41626;53.098;6.168;2023-03-19T07:03:28;12.02;;;10.60;;
55720;SDS011;41626;53.098;6.168;2023-03-19T07:05:54;11.38;;;10.27;;
55720;SDS011;41626;53.098;6.168;2023-03-19T07:08:20;11.70;;;10.50;;
55720;SDS011;41626;53.098;6.168;2023-03-19T07:10:46;13.10;;;11.60;;
55720;SDS011;41626;53.098;6.168;2023-03-19T07:13:12;12.33;;;11.13;;
55720;SDS011;41626;53.098;6.168;2023-03-19T07:15:38;13.50;;;12.20;;
55720;SDS011;41626;53.098;6.168;2023-03-19T07:18:03;13.30;;;11.90;;
55720;SDS011;41626;53.098;6.168;2023-03-19T07:20:29;15.10;;;12.23;;
55720;SDS011;41626;53.098;6.168;2023-03-19T07:22:55;16.40;;;12.13;;
55720;SDS011;41626;53.098;6.168;2023-03-19T07:25:20;17.80;;;13.32;;
55720;SDS011;41626;53.098;6.168;2023-03-19T07:27:46;14.80;;;13.20;;
55720;SDS011;41626;53.098;6.168;2023-03-19T07:30:12;13.95;;;12.65;;
55720;SDS011;41626;53.098;6.168;2023-03-19T07:32:38;14.52;;;13.02;;
55720;SDS011;41626;53.098;6.168;2023-03-19T07:35:05;16.02;;;14.18;;
55720;SDS011;41626;53.098;6.168;2023-03-19T07:37:32;15.80;;;14.10;;
55720;SDS011;41626;53.098;6.168;2023-03-19T07:39:58;16.07;;;14.43;;
55720;SDS011;41626;53.098;6.168;2023-03-19T07:42:23;19.63;;;17.63;;
55720;SDS011;41626;53.098;6.168;2023-03-19T07:44:49;20.35;;;17.95;;
55720;SDS011;41626;53.098;6.168;2023-03-19T07:47:15;22.17;;;19.73;;
55720;SDS011;41626;53.098;6.168;2023-03-19T07:49:41;21.52;;;19.50;;
55720;SDS011;41626;53.098;6.168;2023-03-19T07:52:07;22.80;;;20.47;;
55720;SDS011;41626;53.098;6.168;2023-03-19T07:54:33;23.52;;;21.13;;
55720;SDS011;41626;53.098;6.168;2023-03-19T07:56:59;23.43;;;20.97;;
55720;SDS011;41626;53.098;6.168;2023-03-19T07:59:24;24.23;;;21.93;;
55720;SDS011;41626;53.098;6.168;2023-03-19T08:01:50;26.37;;;23.77;;
55720;SDS011;41626;53.098;6.168;2023-03-19T08:04:16;26.07;;;23.33;;
55720;SDS011;41626;53.098;6.168;2023-03-19T08:06:42;25.50;;;22.97;;
55720;SDS011;41626;53.098;6.168;2023-03-19T08:09:07;24.93;;;22.43;;
55720;SDS011;41626;53.098;6.168;2023-03-19T08:11:33;26.85;;;24.17;;
55720;SDS011;41626;53.098;6.168;2023-03-19T08:13:59;26.58;;;24.05;;
55720;SDS011;41626;53.098;6.168;2023-03-19T08:16:25;25.95;;;23.35;;
55720;SDS011;41626;53.098;6.168;2023-03-19T08:18:51;24.30;;;21.90;;
55720;SDS011;41626;53.098;6.168;2023-03-19T08:21:17;22.60;;;20.20;;
55720;SDS011;41626;53.098;6.168;2023-03-19T08:23:43;22.58;;;20.40;;
55720;SDS011;41626;53.098;6.168;2023-03-19T08:26:08;24.42;;;22.02;;
55720;SDS011;41626;53.098;6.168;2023-03-19T08:28:34;24.73;;;22.25;;
55720;SDS011;41626;53.098;6.168;2023-03-19T08:31:05;25.77;;;23.27;;
55720;SDS011;41626;53.098;6.168;2023-03-19T08:33:32;22.90;;;20.67;;
55720;SDS011;41626;53.098;6.168;2023-03-19T08:36:08;22.15;;;19.92;;
55720;SDS011;41626;53.098;6.168;2023-03-19T08:38:36;19.38;;;17.42;;
55720;SDS011;41626;53.098;6.168;2023-03-19T08:41:02;20.25;;;18.27;;
55720;SDS011;41626;53.098;6.168;2023-03-19T08:43:29;21.48;;;19.27;;
55720;SDS011;41626;53.098;6.168;2023-03-19T08:45:56;20.67;;;18.58;;
55720;SDS011;41626;53.098;6.168;2023-03-19T08:48:22;22.17;;;20.05;;
55720;SDS011;41626;53.098;6.168;2023-03-19T08:50:54;25.85;;;23.40;;
55720;SDS011;41626;53.098;6.168;2023-03-19T08:53:21;28.85;;;26.05;;
55720;SDS011;41626;53.098;6.168;2023-03-19T08:55:58;28.13;;;25.45;;
55720;SDS011;41626;53.098;6.168;2023-03-19T08:58:25;26.73;;;24.08;;
55720;SDS011;41626;53.098;6.168;2023-03-19T09:00:52;25.10;;;22.58;;
55720;SDS011;41626;53.098;6.168;2023-03-19T09:03:18;24.63;;;22.15;;
55720;SDS011;41626;53.098;6.168;2023-03-19T09:05:45;24.67;;;22.08;;
55720;SDS011;41626;53.098;6.168;2023-03-19T09:08:12;26.15;;;23.55;;
55720;SDS011;41626;53.098;6.168;2023-03-19T09:10:38;23.95;;;21.65;;
55720;SDS011;41626;53.098;6.168;2023-03-19T09:13:03;28.13;;;24.48;;
55720;SDS011;41626;53.098;6.168;2023-03-19T09:15:30;28.00;;;25.23;;
55720;SDS011;41626;53.098;6.168;2023-03-19T09:17:55;26.83;;;23.95;;
55720;SDS011;41626;53.098;6.168;2023-03-19T09:20:21;25.83;;;23.15;;
55720;SDS011;41626;53.098;6.168;2023-03-19T09:22:47;27.47;;;24.67;;
55720;SDS011;41626;53.098;6.168;2023-03-19T09:25:13;24.40;;;21.85;;
55720;SDS011;41626;53.098;6.168;2023-03-19T09:27:38;24.13;;;21.70;;
55720;SDS011;41626;53.098;6.168;2023-03-19T09:30:04;24.27;;;21.88;;
55720;SDS011;41626;53.098;6.168;2023-03-19T09:32:33;24.58;;;21.88;;
55720;SDS011;41626;53.098;6.168;2023-03-19T09:35:00;26.13;;;23.38;;
55720;SDS011;41626;53.098;6.168;2023-03-19T09:37:26;29.00;;;25.90;;
55720;SDS011;41626;53.098;6.168;2023-03-19T09:39:51;28.27;;;25.30;;
55720;SDS011;41626;53.098;6.168;2023-03-19T09:45:35;34.08;;;30.60;;
55720;SDS011;41626;53.098;6.168;2023-03-19T09:48:04;31.00;;;27.67;;
55720;SDS011;41626;53.098;6.168;2023-03-19T09:50:32;33.60;;;29.55;;
55720;SDS011;41626;53.098;6.168;2023-03-19T09:53:02;35.10;;;29.00;;
55720;SDS011;41626;53.098;6.168;2023-03-19T09:55:42;33.97;;;29.33;;
55720;SDS011;41626;53.098;6.168;2023-03-19T09:58:12;32.17;;;28.67;;
55720;SDS011;41626;53.098;6.168;2023-03-19T10:00:41;33.22;;;27.77;;
55720;SDS011;41626;53.098;6.168;2023-03-19T10:13:52;35.53;;;30.77;;
55720;SDS011;41626;53.098;6.168;2023-03-19T10:16:27;33.20;;;26.80;;
55720;SDS011;41626;53.098;6.168;2023-03-19T10:18:54;35.20;;;29.30;;
55720;SDS011;41626;53.098;6.168;2023-03-19T10:24:16;42.47;;;32.77;;
55720;SDS011;41626;53.098;6.168;2023-03-19T10:26:46;42.50;;;31.48;;
55720;SDS011;41626;53.098;6.168;2023-03-19T10:29:14;36.53;;;27.77;;
55720;SDS011;41626;53.098;6.168;2023-03-19T10:31:51;37.80;;;29.83;;
55720;SDS011;41626;53.098;6.168;2023-03-19T10:34:30;39.38;;;32.17;;
55720;SDS011;41626;53.098;6.168;2023-03-19T10:37:00;35.95;;;28.40;;
55720;SDS011;41626;53.098;6.168;2023-03-19T10:39:32;33.93;;;28.37;;
55720;SDS011;41626;53.098;6.168;2023-03-19T10:47:53;30.70;;;26.27;;
55720;SDS011;41626;53.098;6.168;2023-03-19T10:50:31;32.35;;;25.65;;
55720;SDS011;41626;53.098;6.168;2023-03-19T10:53:18;29.60;;;24.70;;
55720;SDS011;41626;53.098;6.168;2023-03-19T10:55:59;34.55;;;26.27;;
55720;SDS011;41626;53.098;6.168;2023-03-19T10:58:28;34.60;;;25.95;;
55720;SDS011;41626;53.098;6.168;2023-03-19T11:03:31;31.77;;;25.60;;
55720;SDS011;41626;53.098;6.168;2023-03-19T11:06:05;34.75;;;27.30;;
55720;SDS011;41626;53.098;6.168;2023-03-19T11:08:38;35.60;;;28.23;;
55720;SDS011;41626;53.098;6.168;2023-03-19T11:11:03;37.40;;;28.42;;
55720;SDS011;41626;53.098;6.168;2023-03-19T11:13:29;34.80;;;28.38;;
55720;SDS011;41626;53.098;6.168;2023-03-19T11:15:59;39.37;;;30.00;;
55720;SDS011;41626;53.098;6.168;2023-03-19T11:18:29;39.95;;;29.08;;
55720;SDS011;41626;53.098;6.168;2023-03-19T11:21:13;39.88;;;31.55;;
55720;SDS011;41626;53.098;6.168;2023-03-19T11:23:50;38.67;;;30.08;;
55720;SDS011;41626;53.098;6.168;2023-03-19T11:26:22;41.28;;;30.67;;
55720;SDS011;41626;53.098;6.168;2023-03-19T11:28:52;43.15;;;31.02;;
55720;SDS011;41626;53.098;6.168;2023-03-19T11:31:24;44.55;;;33.75;;
55720;SDS011;41626;53.098;6.168;2023-03-19T11:34:14;41.63;;;30.73;;
55720;SDS011;41626;53.098;6.168;2023-03-19T11:42:03;38.45;;;29.27;;
55720;SDS011;41626;53.098;6.168;2023-03-19T11:59:34;37.05;;;27.08;;
55720;SDS011;41626;53.098;6.168;2023-03-19T12:05:07;39.17;;;28.75;;
55720;SDS011;41626;53.098;6.168;2023-03-19T12:07:55;38.92;;;28.15;;
55720;SDS011;41626;53.098;6.168;2023-03-19T12:27:08;36.05;;;27.23;;
55720;SDS011;41626;53.098;6.168;2023-03-19T12:29:59;37.57;;;25.83;;
55720;SDS011;41626;53.098;6.168;2023-03-19T12:35:36;33.78;;;25.80;;
55720;SDS011;41626;53.098;6.168;2023-03-19T12:38:23;36.65;;;27.33;;
55720;SDS011;41626;53.098;6.168;2023-03-19T12:41:05;34.47;;;24.08;;
55720;SDS011;41626;53.098;6.168;2023-03-19T12:43:36;32.50;;;25.27;;
55720;SDS011;41626;53.098;6.168;2023-03-19T12:49:04;33.13;;;23.92;;
55720;SDS011;41626;53.098;6.168;2023-03-19T12:51:35;30.92;;;23.35;;
55720;SDS011;41626;53.098;6.168;2023-03-19T12:59:13;34.13;;;25.30;;
55720;SDS011;41626;53.098;6.168;2023-03-19T13:01:44;33.03;;;23.77;;
55720;SDS011;41626;53.098;6.168;2023-03-19T13:04:15;35.50;;;25.63;;
55720;SDS011;41626;53.098;6.168;2023-03-19T13:06:54;34.92;;;26.10;;
55720;SDS011;41626;53.098;6.168;2023-03-19T13:09:37;30.75;;;24.08;;
55720;SDS011;41626;53.098;6.168;2023-03-19T13:12:18;26.40;;;19.92;;
55720;SDS011;41626;53.098;6.168;2023-03-19T13:20:42;26.55;;;20.05;;
55720;SDS011;41626;53.098;6.168;2023-03-19T13:23:12;28.45;;;20.95;;
55720;SDS011;41626;53.098;6.168;2023-03-19T13:25:42;27.13;;;19.00;;
55720;SDS011;41626;53.098;6.168;2023-03-19T13:28:17;26.60;;;19.40;;
55720;SDS011;41626;53.098;6.168;2023-03-19T13:30:59;29.33;;;19.98;;
55720;SDS011;41626;53.098;6.168;2023-03-19T13:33:48;31.05;;;22.42;;
55720;SDS011;41626;53.098;6.168;2023-03-19T13:36:30;25.50;;;18.67;;
55720;SDS011;41626;53.098;6.168;2023-03-19T13:39:02;29.88;;;19.35;;
55720;SDS011;41626;53.098;6.168;2023-03-19T13:43:57;27.20;;;19.60;;
55720;SDS011;41626;53.098;6.168;2023-03-19T13:46:35;26.50;;;19.20;;
55720;SDS011;41626;53.098;6.168;2023-03-19T13:49:21;28.60;;;20.70;;
55720;SDS011;41626;53.098;6.168;2023-03-19T13:54:38;27.08;;;19.40;;
55720;SDS011;41626;53.098;6.168;2023-03-19T13:59:41;31.77;;;21.70;;
55720;SDS011;41626;53.098;6.168;2023-03-19T14:05:00;30.63;;;23.88;;
55720;SDS011;41626;53.098;6.168;2023-03-19T14:07:27;33.22;;;24.77;;
55720;SDS011;41626;53.098;6.168;2023-03-19T14:12:46;33.72;;;23.98;;
55720;SDS011;41626;53.098;6.168;2023-03-19T14:17:40;32.60;;;23.35;;
55720;SDS011;41626;53.098;6.168;2023-03-19T14:27:58;33.40;;;24.30;;
55720;SDS011;41626;53.098;6.168;2023-03-19T14:33:05;35.40;;;25.60;;
55720;SDS011;41626;53.098;6.168;2023-03-19T14:35:40;33.78;;;24.75;;
55720;SDS011;41626;53.098;6.168;2023-03-19T14:38:13;35.43;;;23.47;;
55720;SDS011;41626;53.098;6.168;2023-03-19T14:40:52;35.83;;;24.77;;
55720;SDS011;41626;53.098;6.168;2023-03-19T14:46:28;39.47;;;27.85;;
55720;SDS011;41626;53.098;6.168;2023-03-19T14:52:15;41.63;;;29.60;;
55720;SDS011;41626;53.098;6.168;2023-03-19T14:57:24;46.30;;;31.77;;
55720;SDS011;41626;53.098;6.168;2023-03-19T14:59:55;49.53;;;35.25;;
55720;SDS011;41626;53.098;6.168;2023-03-19T15:02:30;48.22;;;32.05;;
55720;SDS011;41626;53.098;6.168;2023-03-19T15:05:23;47.25;;;33.50;;
55720;SDS011;41626;53.098;6.168;2023-03-19T15:08:04;49.97;;;36.27;;
55720;SDS011;41626;53.098;6.168;2023-03-19T15:10:40;51.10;;;33.83;;
55720;SDS011;41626;53.098;6.168;2023-03-19T15:13:42;42.17;;;30.05;;
55720;SDS011;41626;53.098;6.168;2023-03-19T15:19:11;42.43;;;31.57;;
55720;SDS011;41626;53.098;6.168;2023-03-19T15:21:38;38.25;;;27.60;;
55720;SDS011;41626;53.098;6.168;2023-03-19T15:24:04;39.90;;;28.33;;
55720;SDS011;41626;53.098;6.168;2023-03-19T15:26:37;41.63;;;28.65;;
55720;SDS011;41626;53.098;6.168;2023-03-19T15:29:03;42.67;;;29.75;;
55720;SDS011;41626;53.098;6.168;2023-03-19T15:31:43;43.53;;;30.63;;
55720;SDS011;41626;53.098;6.168;2023-03-19T15:34:16;43.13;;;30.67;;
55720;SDS011;41626;53.098;6.168;2023-03-19T15:36:48;43.05;;;28.45;;
55720;SDS011;41626;53.098;6.168;2023-03-19T15:39:27;44.72;;;30.73;;
55720;SDS011;41626;53.098;6.168;2023-03-19T15:41:56;39.92;;;26.65;;
55720;SDS011;41626;53.098;6.168;2023-03-19T15:46:55;37.08;;;24.98;;
55720;SDS011;41626;53.098;6.168;2023-03-19T15:49:24;40.95;;;26.05;;
55720;SDS011;41626;53.098;6.168;2023-03-19T15:51:59;38.70;;;25.23;;
55720;SDS011;41626;53.098;6.168;2023-03-19T15:54:31;38.13;;;25.73;;
55720;SDS011;41626;53.098;6.168;2023-03-19T15:56:57;36.42;;;24.95;;
55720;SDS011;41626;53.098;6.168;2023-03-19T15:59:23;31.45;;;22.27;;
55720;SDS011;41626;53.098;6.168;2023-03-19T16:02:01;34.70;;;21.47;;
55720;SDS011;41626;53.098;6.168;2023-03-19T16:04:28;29.67;;;21.50;;
55720;SDS011;41626;53.098;6.168;2023-03-19T16:06:57;32.70;;;22.90;;
55720;SDS011;41626;53.098;6.168;2023-03-19T16:09:25;34.88;;;23.48;;
55720;SDS011;41626;53.098;6.168;2023-03-19T16:11:57;33.03;;;23.77;;
55720;SDS011;41626;53.098;6.168;2023-03-19T16:16:50;44.57;;;26.50;;
55720;SDS011;41626;53.098;6.168;2023-03-19T16:19:36;49.50;;;26.92;;
55720;SDS011;41626;53.098;6.168;2023-03-19T16:22:13;52.53;;;28.45;;
55720;SDS011;41626;53.098;6.168;2023-03-19T16:24:42;56.67;;;28.98;;
55720;SDS011;41626;53.098;6.168;2023-03-19T16:27:14;51.80;;;27.95;;
55720;SDS011;41626;53.098;6.168;2023-03-19T16:29:44;56.80;;;30.42;;
55720;SDS011;41626;53.098;6.168;2023-03-19T16:32:15;59.67;;;29.88;;
55720;SDS011;41626;53.098;6.168;2023-03-19T16:39:56;60.55;;;29.25;;
55720;SDS011;41626;53.098;6.168;2023-03-19T16:42:27;64.40;;;31.90;;
55720;SDS011;41626;53.098;6.168;2023-03-19T16:44:54;53.15;;;28.95;;
55720;SDS011;41626;53.098;6.168;2023-03-19T16:47:20;58.22;;;29.48;;
55720;SDS011;41626;53.098;6.168;2023-03-19T16:49:46;53.20;;;27.63;;
55720;SDS011;41626;53.098;6.168;2023-03-19T16:52:13;55.03;;;29.10;;
55720;SDS011;41626;53.098;6.168;2023-03-19T16:54:45;52.65;;;29.05;;